createdAt,value
2018-09-14T00:01:22.492Z,82.42
2018-09-14T00:03:50.276Z,81.66
2018-09-14T00:06:18.094Z,81.95
2018-09-14T00:08:45.965Z,81.09
2018-09-14T00:11:13.803Z,82.86
2018-09-14T00:13:41.611Z,80.36
2018-09-14T00:16:09.399Z,82.47
2018-09-14T00:18:37.280Z,81.61
2018-09-14T00:21:05.363Z,81.92
2018-09-14T00:23:33.153Z,81.79
2018-09-14T00:26:00.979Z,83.39
2018-09-14T00:28:28.853Z,81.88
2018-09-14T00:30:56.840Z,81.22
2018-09-14T00:33:24.698Z,81.14
2018-09-14T00:35:52.511Z,81.34
2018-09-14T00:38:20.329Z,81.20
2018-09-14T00:40:48.167Z,81.77
2018-09-14T00:43:16.018Z,82.68
2018-09-14T00:45:43.848Z,80.98
2018-09-14T00:48:11.943Z,81.42
2018-09-14T00:50:39.815Z,80.73
2018-09-14T00:53:07.599Z,81.04
2018-09-14T00:55:35.487Z,81.17
2018-09-14T00:58:03.420Z,80.52
2018-09-14T01:00:31.207Z,81.48
2018-09-14T01:02:58.988Z,80.48
2018-09-14T01:05:26.771Z,82.63
2018-09-14T01:07:54.627Z,81.17
2018-09-14T01:10:22.448Z,81.40
2018-09-14T01:12:50.251Z,80.95
2018-09-14T01:15:18.076Z,82.08
2018-09-14T01:17:45.871Z,81.97
2018-09-14T01:20:13.726Z,83.24
2018-09-14T01:22:41.776Z,82.79
2018-09-14T01:25:09.687Z,80.24
2018-09-14T01:27:37.484Z,81.93
2018-09-14T01:30:05.953Z,83.02
2018-09-14T01:32:37.193Z,81.16
2018-09-14T01:35:09.675Z,81.51
2018-09-14T01:37:37.547Z,81.65
2018-09-14T01:40:05.464Z,82.38
2018-09-14T01:42:33.295Z,81.28
2018-09-14T01:45:01.115Z,81.87
2018-09-14T01:47:28.939Z,82.36
2018-09-14T01:49:56.809Z,82.05
2018-09-14T01:52:24.588Z,81.62
2018-09-14T01:54:52.436Z,82.39
2018-09-14T01:57:20.225Z,82.20
2018-09-14T01:59:48.061Z,80.76
2018-09-14T02:02:15.902Z,82.21
2018-09-14T02:04:43.705Z,81.57
2018-09-14T02:07:11.671Z,80.81
2018-09-14T02:09:39.483Z,81.87
2018-09-14T02:12:07.284Z,82.16
2018-09-14T02:14:35.138Z,82.68
2018-09-14T02:17:02.918Z,81.49
2018-09-14T02:19:34.508Z,82.13
2018-09-14T02:22:02.380Z,82.19
2018-09-14T02:24:30.164Z,81.73
2018-09-14T02:26:57.944Z,81.89
2018-09-14T02:29:25.763Z,80.68
2018-09-14T02:31:53.539Z,81.66
2018-09-14T02:34:21.344Z,82.13
2018-09-14T02:36:50.140Z,81.19
2018-09-14T02:39:17.945Z,81.39
2018-09-14T02:41:45.769Z,81.43
2018-09-14T02:44:13.643Z,81.40
2018-09-14T02:46:41.501Z,81.29
2018-09-14T02:49:09.329Z,81.19
2018-09-14T02:51:37.104Z,80.67
2018-09-14T02:54:05.005Z,81.34
2018-09-14T02:56:32.763Z,81.08
2018-09-14T02:59:00.521Z,81.08
2018-09-14T03:01:28.322Z,81.08
2018-09-14T03:03:56.183Z,81.49
2018-09-14T03:06:24.046Z,81.10
2018-09-14T03:08:51.883Z,81.39
2018-09-14T03:11:19.788Z,79.65
2018-09-14T03:13:47.620Z,79.67
2018-09-14T03:16:15.374Z,80.24
2018-09-14T03:18:43.382Z,80.68
2018-09-14T03:21:11.135Z,80.11
2018-09-14T03:23:38.980Z,80.49
2018-09-14T03:26:06.779Z,79.75
2018-09-14T03:28:34.644Z,80.51
2018-09-14T03:31:02.475Z,80.22
2018-09-14T03:33:30.249Z,80.90
2018-09-14T03:35:58.623Z,80.79
2018-09-14T03:38:26.671Z,80.08
2018-09-14T03:40:54.528Z,80.00
2018-09-14T03:43:22.393Z,79.67
2018-09-14T03:45:54.372Z,80.17
2018-09-14T03:48:22.206Z,80.32
2018-09-14T03:50:50.044Z,80.02
2018-09-14T03:53:18.342Z,79.16
2018-09-14T03:55:46.112Z,79.73
2018-09-14T03:58:13.911Z,80.10
2018-09-14T04:00:42.432Z,79.78
2018-09-14T04:03:10.359Z,79.51
2018-09-14T04:05:38.421Z,79.09
2018-09-14T04:08:06.408Z,79.60
2018-09-14T04:10:34.255Z,79.85
2018-09-14T04:13:02.028Z,79.99
2018-09-14T04:15:30.108Z,79.54
2018-09-14T04:17:58.278Z,80.20
2018-09-14T04:20:26.171Z,79.81
2018-09-14T04:22:54.075Z,79.52
2018-09-14T04:25:21.931Z,79.76
2018-09-14T04:27:49.889Z,80.27
2018-09-14T04:30:17.745Z,80.04
2018-09-14T04:32:45.620Z,79.45
2018-09-14T04:35:13.450Z,79.85
2018-09-14T04:37:41.295Z,79.41
2018-09-14T04:40:09.111Z,79.22
2018-09-14T04:42:36.929Z,79.25
2018-09-14T04:45:05.016Z,79.15
2018-09-14T04:47:33.223Z,78.96
2018-09-14T04:50:01.072Z,79.53
2018-09-14T04:52:28.895Z,79.85
2018-09-14T04:54:56.891Z,79.66
2018-09-14T04:57:24.924Z,79.47
2018-09-14T04:59:52.798Z,79.27
2018-09-14T05:02:20.789Z,79.77
2018-09-14T05:04:48.822Z,78.82
2018-09-14T05:07:16.835Z,79.52
2018-09-14T05:09:44.863Z,79.78
2018-09-14T05:12:12.894Z,79.43
2018-09-14T05:14:40.632Z,79.04
2018-09-14T05:17:08.699Z,78.89
2018-09-14T05:19:36.555Z,79.20
2018-09-14T05:22:04.498Z,78.81
2018-09-14T05:24:32.282Z,79.06
2018-09-14T05:27:00.041Z,78.82
2018-09-14T05:29:27.891Z,79.02
2018-09-14T05:31:55.707Z,78.77
2018-09-14T05:34:23.600Z,78.71
2018-09-14T05:36:51.452Z,78.73
2018-09-14T05:39:19.263Z,78.12
2018-09-14T05:41:47.035Z,78.09
2018-09-14T05:44:14.827Z,78.60
2018-09-14T05:46:42.606Z,78.41
2018-09-14T05:49:10.407Z,78.51
2018-09-14T05:51:38.181Z,78.26
2018-09-14T05:54:06.071Z,77.61
2018-09-14T05:56:38.678Z,77.94
2018-09-14T05:59:06.563Z,77.91
2018-09-14T06:01:34.371Z,77.63
2018-09-14T06:04:02.204Z,77.22
2018-09-14T06:06:30.200Z,77.46
2018-09-14T06:08:57.908Z,77.15
2018-09-14T06:11:25.748Z,77.01
2018-09-14T06:13:53.922Z,76.94
2018-09-14T06:16:21.744Z,77.01
2018-09-14T06:18:49.534Z,77.07
2018-09-14T06:21:17.361Z,76.90
2018-09-14T06:23:45.194Z,76.41
2018-09-14T06:26:13.021Z,76.31
2018-09-14T06:28:40.825Z,75.81
2018-09-14T06:31:08.903Z,76.32
2018-09-14T06:33:36.703Z,75.85
2018-09-14T06:36:04.499Z,76.10
2018-09-14T06:38:32.395Z,75.32
2018-09-14T06:41:00.232Z,75.43
2018-09-14T06:43:32.475Z,75.03
2018-09-14T06:46:00.383Z,74.47
2018-09-14T06:48:28.188Z,75.29
2018-09-14T06:50:55.982Z,74.86
2018-09-14T06:53:23.870Z,74.92
2018-09-14T06:55:51.643Z,74.36
2018-09-14T06:58:19.467Z,74.62
2018-09-14T07:00:47.344Z,73.99
2018-09-14T07:03:15.176Z,74.46
2018-09-14T07:05:42.988Z,74.13
2018-09-14T07:08:10.808Z,74.22
2018-09-14T07:10:38.938Z,73.99
2018-09-14T07:13:06.898Z,73.98
2018-09-14T07:15:36.275Z,74.00
2018-09-14T07:18:04.116Z,73.53
2018-09-14T07:20:31.899Z,72.31
2018-09-14T07:22:59.744Z,72.82
2018-09-14T07:25:27.541Z,71.85
2018-09-14T07:27:55.290Z,71.91
2018-09-14T07:30:23.112Z,71.52
2018-09-14T07:32:50.987Z,72.21
2018-09-14T07:35:18.755Z,71.14
2018-09-14T07:37:46.623Z,71.14
2018-09-14T07:40:14.429Z,70.96
2018-09-14T07:42:42.252Z,70.02
2018-09-14T07:45:10.020Z,71.26
2018-09-14T07:47:37.907Z,70.87
2018-09-14T07:50:05.884Z,68.47
2018-09-14T07:52:33.714Z,69.59
2018-09-14T07:55:01.554Z,68.58
2018-09-14T07:57:29.360Z,69.55
2018-09-14T07:59:57.239Z,69.10
2018-09-14T08:02:25.111Z,69.32
2018-09-14T08:04:52.932Z,68.80
2018-09-14T08:07:20.740Z,68.18
2018-09-14T08:09:48.652Z,66.04
2018-09-14T08:12:16.484Z,66.72
2018-09-14T08:14:44.307Z,67.33
2018-09-14T08:17:12.129Z,67.05
2018-09-14T08:19:39.999Z,64.65
2018-09-14T08:22:07.844Z,66.43
2018-09-14T08:24:35.678Z,66.14
2018-09-14T08:27:03.501Z,64.16
2018-09-14T08:29:31.228Z,64.44
2018-09-14T08:31:59.036Z,63.29
2018-09-14T08:34:30.609Z,64.03
2018-09-14T08:36:58.507Z,63.95
2018-09-14T08:39:26.259Z,60.87
2018-09-14T08:41:54.187Z,61.88
2018-09-14T08:44:21.995Z,62.49
2018-09-14T08:46:49.869Z,63.34
2018-09-14T08:49:17.675Z,61.38
2018-09-14T08:51:45.500Z,59.05
2018-09-14T08:54:13.264Z,58.34
2018-09-14T08:56:41.104Z,59.94
2018-09-14T08:59:08.982Z,60.36
2018-09-14T09:01:36.839Z,58.83
2018-09-14T09:04:04.719Z,60.13
2018-09-14T09:06:32.532Z,60.38
2018-09-14T09:09:00.411Z,57.28
2018-09-14T09:11:28.227Z,58.38
2018-09-14T09:13:56.039Z,57.05
2018-09-14T09:16:27.056Z,57.98
2018-09-14T09:18:54.860Z,58.68
2018-09-14T09:21:22.663Z,58.58
2018-09-14T09:23:50.584Z,57.39
2018-09-14T09:26:18.381Z,56.67
2018-09-14T09:28:46.179Z,56.75
2018-09-14T09:31:14.063Z,57.68
2018-09-14T09:33:41.829Z,57.69
2018-09-14T09:36:09.681Z,55.84
2018-09-14T09:38:37.575Z,55.59
2018-09-14T09:41:05.884Z,56.68
2018-09-14T09:43:33.964Z,53.14
2018-09-14T09:46:01.663Z,53.86
2018-09-14T09:48:29.520Z,51.66
2018-09-14T09:50:57.355Z,51.35
2018-09-14T09:53:25.172Z,50.26
2018-09-14T09:55:52.967Z,54.02
2018-09-14T09:58:24.310Z,54.83
2018-09-14T10:00:57.880Z,53.95
2018-09-14T10:03:31.568Z,54.29
2018-09-14T10:06:05.098Z,53.63
2018-09-14T10:08:32.944Z,53.39
2018-09-14T10:11:00.760Z,52.95
2018-09-14T10:13:28.614Z,50.66
2018-09-14T10:15:56.492Z,50.80
2018-09-14T10:18:24.307Z,53.78
2018-09-14T10:20:52.267Z,51.29
2018-09-14T10:23:20.084Z,48.70
2018-09-14T10:25:48.084Z,53.05
2018-09-14T10:28:15.913Z,53.95
2018-09-14T10:30:43.920Z,51.41
2018-09-14T10:33:11.967Z,52.50
2018-09-14T10:35:39.800Z,51.07
2018-09-14T10:38:07.626Z,47.45
2018-09-14T10:40:35.529Z,49.43
2018-09-14T10:43:03.420Z,50.34
2018-09-14T10:45:31.216Z,47.97
2018-09-14T10:50:44.984Z,45.89
2018-09-14T10:53:12.826Z,44.64
2018-09-14T10:55:40.716Z,43.78
2018-09-14T10:58:08.628Z,43.07
2018-09-14T11:00:36.482Z,43.10
2018-09-14T11:03:06.635Z,39.12
2018-09-14T11:05:34.464Z,36.63
2018-09-14T11:08:02.342Z,37.16
2018-09-14T11:10:30.147Z,36.26
2018-09-14T11:12:58.014Z,35.07
2018-09-14T11:15:25.939Z,35.51
2018-09-14T11:17:53.765Z,34.86
2018-09-14T11:20:21.492Z,33.27
2018-09-14T11:22:49.378Z,31.21
2018-09-14T11:25:17.198Z,29.48
2018-09-14T11:27:45.644Z,31.54
2018-09-14T11:30:13.422Z,31.62
2018-09-14T11:32:41.213Z,32.53
2018-09-14T11:35:08.967Z,31.58
2018-09-14T11:37:36.794Z,30.60
2018-09-14T11:40:04.735Z,31.10
2018-09-14T11:42:32.588Z,30.02
2018-09-14T11:45:00.360Z,29.29
2018-09-14T11:47:28.149Z,30.87
2018-09-14T11:49:55.968Z,30.30
2018-09-14T11:52:24.359Z,27.58
2018-09-14T11:54:52.260Z,29.34
2018-09-14T11:57:19.991Z,31.39
2018-09-14T11:59:47.754Z,30.67
2018-09-14T12:02:15.560Z,32.75
2018-09-14T12:04:43.484Z,33.90
2018-09-14T12:07:11.331Z,33.84
2018-09-14T12:09:39.714Z,34.38
2018-09-14T12:12:07.624Z,35.77
2018-09-14T12:14:35.424Z,36.79
2018-09-14T12:17:03.171Z,33.54
2018-09-14T12:19:31.156Z,34.40
2018-09-14T12:22:00.074Z,36.28
2018-09-14T12:24:28.396Z,36.40
2018-09-14T12:26:57.621Z,36.61
2018-09-14T12:29:25.572Z,35.56
2018-09-14T12:31:57.089Z,35.27
2018-09-14T12:34:24.968Z,35.46
2018-09-14T12:36:53.349Z,34.05
2018-09-14T12:39:21.683Z,32.93
2018-09-14T12:41:49.550Z,33.86
2018-09-14T12:44:17.851Z,33.39
2018-09-14T12:46:50.013Z,35.23
2018-09-14T12:49:18.019Z,34.31
2018-09-14T12:51:45.820Z,34.98
2018-09-14T12:54:13.571Z,35.86
2018-09-14T12:56:41.618Z,34.35
2018-09-14T12:59:09.487Z,35.28
2018-09-14T13:01:40.768Z,36.70
2018-09-14T13:04:08.940Z,35.21
2018-09-14T13:06:36.691Z,37.23
2018-09-14T13:09:10.629Z,35.68
2018-09-14T13:11:38.953Z,35.70
2018-09-14T13:14:07.061Z,34.34
2018-09-14T13:16:35.137Z,35.90
2018-09-14T13:19:03.023Z,36.40
2018-09-14T13:21:31.259Z,36.15
2018-09-14T13:23:59.047Z,37.08
2018-09-14T13:26:33.737Z,35.12
2018-09-14T13:29:01.899Z,37.12
2018-09-14T13:31:29.655Z,37.44
2018-09-14T13:33:57.589Z,37.36
2018-09-14T13:36:25.351Z,37.83
2018-09-14T13:38:53.164Z,37.80
2018-09-14T13:41:20.977Z,36.91
2018-09-14T13:43:48.808Z,38.25
2018-09-14T13:46:18.785Z,38.57
2018-09-14T13:48:46.678Z,38.05
2018-09-14T13:51:14.598Z,36.92
2018-09-14T13:53:42.503Z,37.26
2018-09-14T13:56:10.332Z,38.23
2018-09-14T13:58:38.095Z,38.02
2018-09-14T14:01:06.288Z,37.94
2018-09-14T14:03:34.003Z,38.53
2018-09-14T14:06:01.790Z,38.16
2018-09-14T14:08:29.557Z,39.06
2018-09-14T14:10:57.356Z,36.77
2018-09-14T14:13:25.130Z,39.31
2018-09-14T14:15:52.945Z,38.76
2018-09-14T14:18:20.752Z,38.57
2018-09-14T14:20:48.581Z,39.92
2018-09-14T14:23:16.438Z,40.20
2018-09-14T14:25:44.275Z,39.54
2018-09-14T14:28:12.056Z,39.31
2018-09-14T14:30:39.916Z,40.29
2018-09-14T14:33:08.127Z,41.06
2018-09-14T14:35:40.657Z,40.91
2018-09-14T14:38:08.467Z,40.85
2018-09-14T14:40:36.336Z,41.22
2018-09-14T14:43:04.172Z,40.45
2018-09-14T14:45:32.055Z,40.54
2018-09-14T14:47:59.919Z,39.74
2018-09-14T14:50:27.779Z,40.46
2018-09-14T14:52:55.700Z,38.88
2018-09-14T14:55:23.549Z,41.30
2018-09-14T14:57:51.356Z,41.59
2018-09-14T15:00:19.196Z,41.15
2018-09-14T15:02:47.060Z,39.64
2018-09-14T15:05:14.916Z,41.05
2018-09-14T15:07:42.775Z,41.22
2018-09-14T15:10:10.673Z,40.45
2018-09-14T15:12:38.456Z,40.78
2018-09-14T15:15:06.356Z,40.00
2018-09-14T15:17:34.119Z,41.36
2018-09-14T15:20:01.976Z,41.03
2018-09-14T15:22:29.783Z,40.89
2018-09-14T15:24:57.580Z,40.61
2018-09-14T15:27:25.394Z,40.64
2018-09-14T15:29:53.245Z,41.19
2018-09-14T15:32:21.036Z,40.93
2018-09-14T15:34:48.943Z,41.37
2018-09-14T15:37:16.793Z,40.35
2018-09-14T15:39:44.676Z,41.70
2018-09-14T15:42:12.678Z,42.26
2018-09-14T15:44:40.460Z,42.21
2018-09-14T15:47:11.635Z,42.28
2018-09-14T15:49:39.514Z,41.87
2018-09-14T15:52:07.432Z,40.91
2018-09-14T15:54:35.356Z,41.84
2018-09-14T15:57:03.188Z,42.56
2018-09-14T15:59:30.954Z,42.29
2018-09-14T16:01:58.706Z,41.66
2018-09-14T16:04:27.174Z,41.15
2018-09-14T16:06:54.998Z,42.25
2018-09-14T16:09:22.901Z,41.78
2018-09-14T16:11:50.683Z,43.11
2018-09-14T16:14:18.467Z,41.52
2018-09-14T16:16:46.247Z,42.51
2018-09-14T16:19:14.025Z,42.24
2018-09-14T16:21:41.753Z,41.11
2018-09-14T16:24:09.591Z,42.97
2018-09-14T16:26:37.480Z,43.33
2018-09-14T16:29:05.387Z,42.71
2018-09-14T16:31:33.299Z,44.03
2018-09-14T16:34:01.139Z,43.84
2018-09-14T16:36:28.947Z,44.10
2018-09-14T16:38:56.780Z,44.42
2018-09-14T16:41:24.528Z,42.63
2018-09-14T16:43:52.419Z,42.74
2018-09-14T16:46:20.164Z,43.81
2018-09-14T16:48:48.032Z,44.25
2018-09-14T16:51:20.250Z,44.70
2018-09-14T16:53:48.228Z,45.29
2018-09-14T16:56:15.983Z,43.56
2018-09-14T16:58:43.866Z,43.83
2018-09-14T17:01:11.694Z,43.83
2018-09-14T17:03:39.551Z,44.00
2018-09-14T17:06:07.392Z,44.74
2018-09-14T17:08:35.167Z,43.81
2018-09-14T17:11:03.006Z,44.50
2018-09-14T17:13:30.801Z,44.57
2018-09-14T17:15:58.905Z,45.08
2018-09-14T17:18:28.463Z,45.94
2018-09-14T17:20:58.836Z,45.64
2018-09-14T17:23:26.588Z,45.65
2018-09-14T17:25:54.516Z,45.74
2018-09-14T17:28:22.343Z,46.02
2018-09-14T17:30:50.490Z,45.15
2018-09-14T17:33:18.190Z,46.20
2018-09-14T17:35:51.421Z,45.72
2018-09-14T17:38:19.458Z,45.67
2018-09-14T17:40:47.142Z,45.84
2018-09-14T17:43:15.028Z,45.89
2018-09-14T17:45:42.920Z,45.70
2018-09-14T17:48:10.723Z,46.70
2018-09-14T17:50:38.500Z,46.18
2018-09-14T17:53:06.348Z,46.30
2018-09-14T17:55:34.164Z,46.55
2018-09-14T17:58:02.039Z,46.31
2018-09-14T18:00:29.892Z,46.35
2018-09-14T18:02:57.705Z,47.24
2018-09-14T18:05:25.540Z,47.01
2018-09-14T18:07:53.360Z,47.36
2018-09-14T18:10:23.126Z,47.16
2018-09-14T18:12:51.072Z,47.22
2018-09-14T18:15:18.874Z,47.97
2018-09-14T18:17:46.861Z,48.13
2018-09-14T18:20:14.691Z,47.65
2018-09-14T18:22:42.514Z,47.79
2018-09-14T18:25:10.564Z,48.23
2018-09-14T18:27:38.989Z,48.71
2018-09-14T18:30:07.868Z,49.02
2018-09-14T18:32:35.872Z,48.55
2018-09-14T18:35:03.998Z,49.10
2018-09-14T18:37:31.793Z,49.26
2018-09-14T18:39:59.763Z,48.56
2018-09-14T18:42:27.588Z,49.44
2018-09-14T18:44:55.403Z,48.99
2018-09-14T18:47:23.847Z,49.54
2018-09-14T18:49:51.687Z,49.69
2018-09-14T18:52:19.486Z,49.15
2018-09-14T18:54:47.387Z,49.85
2018-09-14T18:57:15.438Z,49.98
2018-09-14T18:59:43.557Z,49.88
2018-09-14T19:02:11.481Z,49.14
2018-09-14T19:04:39.380Z,49.87
2018-09-14T19:07:07.425Z,49.77
2018-09-14T19:09:35.377Z,49.37
2018-09-14T19:12:03.274Z,49.48
2018-09-14T19:14:31.183Z,49.01
2018-09-14T19:16:59.052Z,49.46
2018-09-14T19:19:26.925Z,50.12
2018-09-14T19:21:54.715Z,50.45
2018-09-14T19:24:22.586Z,50.50
2018-09-14T19:26:50.537Z,49.83
2018-09-14T19:29:18.468Z,50.70
2018-09-14T19:31:46.283Z,50.51
2018-09-14T19:34:16.010Z,50.37
2018-09-14T19:36:44.909Z,50.52
2018-09-14T19:39:13.445Z,50.82
2018-09-14T19:41:41.292Z,51.33
2018-09-14T19:44:09.327Z,51.12
2018-09-14T19:46:37.137Z,51.67
2018-09-14T19:49:05.137Z,51.37
2018-09-14T19:51:32.995Z,51.63
2018-09-14T19:54:00.915Z,50.46
2018-09-14T19:56:28.805Z,51.26
2018-09-14T19:58:57.393Z,52.08
2018-09-14T20:01:25.283Z,51.33
2018-09-14T20:03:53.329Z,50.87
2018-09-14T20:06:21.233Z,51.38
2018-09-14T20:08:49.034Z,51.77
2018-09-14T20:11:16.849Z,51.64
2018-09-14T20:13:44.626Z,51.68
2018-09-14T20:16:12.755Z,51.24
2018-09-14T20:18:40.615Z,52.63
2018-09-14T20:21:08.333Z,52.19
2018-09-14T20:23:36.143Z,52.79
2018-09-14T20:26:04.339Z,51.75
2018-09-14T20:28:32.179Z,52.25
2018-09-14T20:31:00.120Z,53.34
2018-09-14T20:33:27.988Z,54.40
2018-09-14T20:35:56.380Z,55.60
2018-09-14T20:38:24.360Z,55.67
2018-09-14T20:40:52.152Z,55.62
2018-09-14T20:43:20.054Z,55.67
2018-09-14T20:45:47.899Z,55.89
2018-09-14T20:48:15.690Z,57.06
2018-09-14T20:50:43.600Z,57.13
2018-09-14T20:53:11.419Z,57.85
2018-09-14T20:55:39.316Z,56.32
2018-09-14T20:58:07.147Z,55.57
2018-09-14T21:00:34.920Z,57.23
2018-09-14T21:03:03.560Z,55.31
2018-09-14T21:05:31.473Z,54.81
2018-09-14T21:07:59.455Z,54.70
2018-09-14T21:10:27.293Z,54.42
2018-09-14T21:12:58.920Z,55.11
2018-09-14T21:15:26.905Z,53.42
2018-09-14T21:17:54.912Z,53.02
2018-09-14T21:20:22.718Z,54.22
2018-09-14T21:22:50.583Z,53.86
2018-09-14T21:25:18.419Z,54.27
2018-09-14T21:27:46.324Z,53.55
2018-09-14T21:30:14.192Z,53.82
2018-09-14T21:32:41.986Z,54.07
2018-09-14T21:35:09.884Z,53.51
2018-09-14T21:37:37.992Z,53.54
2018-09-14T21:40:09.264Z,53.88
2018-09-14T21:42:37.073Z,53.32
2018-09-14T21:45:05.297Z,53.01
2018-09-14T21:47:33.128Z,53.09
2018-09-14T21:50:00.868Z,53.59
2018-09-14T21:52:28.779Z,52.70
2018-09-14T21:54:57.311Z,53.20
2018-09-14T21:57:25.144Z,53.22
2018-09-14T21:59:53.053Z,53.14
2018-09-14T22:02:20.902Z,53.12
2018-09-14T22:04:48.659Z,52.96
2018-09-14T22:07:16.454Z,52.67
2018-09-14T22:09:44.768Z,52.80
2018-09-14T22:12:12.581Z,52.34
2018-09-14T22:14:40.420Z,52.25
2018-09-14T22:17:08.303Z,52.35
2018-09-14T22:19:36.143Z,52.01
2018-09-14T22:22:03.986Z,52.84
2018-09-14T22:24:31.731Z,52.92
2018-09-14T22:26:59.535Z,52.42
2018-09-14T22:29:27.369Z,52.37
2018-09-14T22:31:55.254Z,52.79
2018-09-14T22:34:23.017Z,52.12
2018-09-14T22:36:50.842Z,52.16
2018-09-14T22:39:18.692Z,52.36
2018-09-14T22:41:46.519Z,51.54
2018-09-14T22:44:14.293Z,51.59
2018-09-14T22:46:42.143Z,51.25
2018-09-14T22:49:09.990Z,51.27
2018-09-14T22:51:37.871Z,51.05
2018-09-14T22:54:05.743Z,51.38
2018-09-14T22:56:33.588Z,51.13
2018-09-14T22:59:01.378Z,51.78
2018-09-14T23:01:30.621Z,52.35
2018-09-14T23:03:59.076Z,51.94
2018-09-14T23:06:26.872Z,51.79
2018-09-14T23:08:54.715Z,51.29
2018-09-14T23:11:22.470Z,51.80
2018-09-14T23:13:50.283Z,52.04
2018-09-14T23:16:18.106Z,51.27
2018-09-14T23:18:45.952Z,51.61
2018-09-14T23:21:13.786Z,51.99
2018-09-14T23:23:41.569Z,51.69
2018-09-14T23:26:12.801Z,51.88
2018-09-14T23:28:40.712Z,52.15
2018-09-14T23:31:08.483Z,52.56
2018-09-14T23:33:36.370Z,52.46
2018-09-14T23:36:04.246Z,52.60
2018-09-14T23:38:32.085Z,52.66
2018-09-14T23:40:59.911Z,53.19
2018-09-14T23:43:27.755Z,53.13
2018-09-14T23:45:55.523Z,53.70
2018-09-14T23:48:23.314Z,52.98
2018-09-14T23:50:51.148Z,53.42
2018-09-14T23:53:18.952Z,53.71
2018-09-14T23:55:46.731Z,53.72
2018-09-14T23:58:14.488Z,54.30
